createdAt,value
2023-01-18T00:01:01.219Z,98393.16
2023-01-18T00:03:27.739Z,98386.19
2023-01-18T00:05:54.884Z,98388.84
2023-01-18T00:08:21.256Z,98396.06
2023-01-18T00:10:47.666Z,98399.53
2023-01-18T00:13:13.989Z,98394.41
2023-01-18T00:15:40.440Z,98400.50
2023-01-18T00:18:07.202Z,98396.34
2023-01-18T00:20:33.593Z,98397.16
2023-01-18T00:23:04.131Z,98398.16
2023-01-18T00:25:30.857Z,98401.63
2023-01-18T00:27:57.556Z,98405.06
2023-01-18T00:30:27.337Z,98398.84
2023-01-18T00:32:56.617Z,98401.31
2023-01-18T00:35:24.085Z,98403.00
2023-01-18T00:37:51.860Z,98408.28
2023-01-18T00:40:19.625Z,98402.00
2023-01-18T00:43:04.692Z,98407.16
2023-01-18T00:45:31.164Z,98401.06
2023-01-18T00:47:58.333Z,98404.50
2023-01-18T00:50:25.107Z,98407.16
2023-01-18T00:52:56.668Z,98409.78
2023-01-18T00:55:23.717Z,98401.06
2023-01-18T00:57:50.413Z,98402.69
2023-01-18T01:00:19.540Z,98397.56
2023-01-18T01:02:46.350Z,98402.00
2023-01-18T01:05:40.498Z,98400.38
2023-01-18T01:08:07.429Z,98398.69
2023-01-18T01:10:36.625Z,98398.69
2023-01-18T01:13:21.502Z,98403.28
2023-01-18T01:16:06.278Z,98401.63
2023-01-18T01:18:51.117Z,98407.06
2023-01-18T01:21:36.184Z,98407.06
2023-01-18T01:24:21.077Z,98407.19
2023-01-18T01:26:47.619Z,98422.16
2023-01-18T01:29:14.128Z,98422.28
2023-01-18T01:31:40.691Z,98418.97
2023-01-18T01:34:07.252Z,98424.25
2023-01-18T01:36:33.654Z,98426.34
2023-01-18T01:39:00.113Z,98429.13
2023-01-18T01:41:29.669Z,98425.81
2023-01-18T01:43:58.932Z,98431.38
2023-01-18T01:46:36.993Z,98437.75
2023-01-18T01:49:12.836Z,98432.75
2023-01-18T01:51:46.055Z,98433.84
2023-01-18T01:54:23.767Z,98436.78
2023-01-18T01:56:55.503Z,98430.00
2023-01-18T01:59:22.646Z,98432.78
2023-01-18T02:01:49.696Z,98433.91
2023-01-18T02:04:16.320Z,98430.44
2023-01-18T02:06:42.674Z,98441.09
2023-01-18T02:09:13.199Z,98438.59
2023-01-18T02:11:41.154Z,98432.69
2023-01-18T02:14:10.555Z,98438.06
2023-01-18T02:17:08.739Z,98435.56
2023-01-18T02:20:06.836Z,98437.53
2023-01-18T02:22:48.204Z,98435.84
2023-01-18T02:25:39.044Z,98435.03
2023-01-18T02:28:17.146Z,98431.56
2023-01-18T02:30:52.966Z,98434.22
2023-01-18T02:33:46.974Z,98439.59
2023-01-18T02:36:26.508Z,98442.38
2023-01-18T02:39:00.220Z,98443.50
2023-01-18T02:42:06.939Z,98442.69
2023-01-18T02:44:55.833Z,98442.69
2023-01-18T02:47:24.689Z,98441.97
2023-01-18T02:49:51.093Z,98445.84
2023-01-18T02:52:41.254Z,98453.06
2023-01-18T02:55:13.936Z,98458.47
2023-01-18T02:57:40.472Z,98456.94
2023-01-18T03:00:09.995Z,98461.38
2023-01-18T03:02:38.214Z,98455.31
2023-01-18T03:05:07.252Z,98460.56
2023-01-18T03:07:58.767Z,98458.88
2023-01-18T03:10:31.053Z,98472.75
2023-01-18T03:13:03.924Z,98467.59
2023-01-18T03:15:51.852Z,98464.97
2023-01-18T03:18:21.992Z,98465.81
2023-01-18T03:20:53.426Z,98469.13
2023-01-18T03:23:40.983Z,98471.91
2023-01-18T03:26:19.211Z,98472.75
2023-01-18T03:29:10.730Z,98476.06
2023-01-18T03:32:01.583Z,98468.19
2023-01-18T03:34:33.254Z,98470.81
2023-01-18T03:37:04.619Z,98474.09
2023-01-18T03:39:42.925Z,98477.88
2023-01-18T03:42:14.401Z,98477.03
2023-01-18T03:44:48.013Z,98468.31
2023-01-18T03:47:14.476Z,98478.00
2023-01-18T03:49:41.192Z,98483.41
2023-01-18T03:52:15.188Z,98480.75
2023-01-18T03:54:56.771Z,98479.09
2023-01-18T03:57:28.437Z,98484.38
2023-01-18T03:59:55.283Z,98483.56
2023-01-18T04:02:23.213Z,98482.72
2023-01-18T04:04:50.027Z,98474.66
2023-01-18T04:07:16.399Z,98483.41
2023-01-18T04:09:42.803Z,98485.91
2023-01-18T04:12:09.384Z,98482.44
2023-01-18T04:14:35.743Z,98487.72
2023-01-18T04:17:02.087Z,98490.47
2023-01-18T04:19:28.637Z,98495.88
2023-01-18T04:21:55.050Z,98497.81
2023-01-18T04:24:21.438Z,98496.28
2023-01-18T04:26:47.875Z,98501.84
2023-01-18T04:29:14.234Z,98501.13
2023-01-18T04:31:40.652Z,98501.41
2023-01-18T04:34:07.199Z,98499.88
2023-01-18T04:36:33.622Z,98500.84
2023-01-18T04:39:00.179Z,98506.25
2023-01-18T04:41:26.580Z,98509.16
2023-01-18T04:43:53.039Z,98513.72
2023-01-18T04:46:19.598Z,98523.53
2023-01-18T04:48:50.603Z,98519.38
2023-01-18T04:51:17.860Z,98528.38
2023-01-18T04:53:45.025Z,98526.84
2023-01-18T04:56:11.979Z,98519.13
2023-01-18T04:58:38.707Z,98533.22
2023-01-18T05:01:07.461Z,98531.69
2023-01-18T05:03:38.387Z,98529.34
2023-01-18T05:06:10.401Z,98525.06
2023-01-18T05:08:41.193Z,98529.72
2023-01-18T05:11:13.284Z,98532.50
2023-01-18T05:13:40.457Z,98535.25
2023-01-18T05:16:08.697Z,98537.19
2023-01-18T05:18:35.175Z,98539.97
2023-01-18T05:21:01.602Z,98537.47
2023-01-18T05:23:28.124Z,98546.44
2023-01-18T05:25:56.686Z,98544.78
2023-01-18T05:28:24.452Z,98537.03
2023-01-18T05:30:51.421Z,98544.91
2023-01-18T05:33:19.179Z,98548.53
2023-01-18T05:35:50.660Z,98552.81
2023-01-18T05:38:17.830Z,98547.69
2023-01-18T05:40:45.473Z,98559.16
2023-01-18T05:43:12.721Z,98564.56
2023-01-18T05:45:40.173Z,98573.41
2023-01-18T05:48:06.587Z,98570.94
2023-01-18T05:50:33.151Z,98568.41
2023-01-18T05:53:00.418Z,98571.19
2023-01-18T05:55:27.579Z,98572.28
2023-01-18T05:57:54.184Z,98577.66
2023-01-18T06:00:20.883Z,98586.38
2023-01-18T06:02:47.246Z,98588.06
2023-01-18T06:05:13.898Z,98586.38
2023-01-18T06:07:42.085Z,98582.09
2023-01-18T06:10:09.731Z,98585.56
2023-01-18T06:12:36.206Z,98600.50
2023-01-18T06:15:02.544Z,98602.16
2023-01-18T06:17:31.293Z,98603.84
2023-01-18T06:19:58.131Z,98608.22
2023-01-18T06:22:24.484Z,98608.22
2023-01-18T06:24:50.916Z,98608.13
2023-01-18T06:27:17.318Z,98608.81
2023-01-18T06:29:43.650Z,98610.47
2023-01-18T06:32:10.071Z,98612.16
2023-01-18T06:34:36.839Z,98615.47
2023-01-18T06:37:04.228Z,98620.72
2023-01-18T06:39:30.700Z,98629.31
2023-01-18T06:41:57.030Z,98631.81
2023-01-18T06:44:23.388Z,98633.47
2023-01-18T06:46:49.849Z,98632.50
2023-01-18T06:49:16.911Z,98639.44
2023-01-18T06:51:43.323Z,98644.56
2023-01-18T06:54:10.143Z,98647.19
2023-01-18T06:56:36.524Z,98651.50
2023-01-18T06:59:03.522Z,98655.78
2023-01-18T07:01:29.996Z,98649.56
2023-01-18T07:03:56.517Z,98655.66
2023-01-18T07:06:22.989Z,98674.78
2023-01-18T07:08:49.657Z,98670.34
2023-01-18T07:11:16.260Z,98676.31
2023-01-18T07:13:43.609Z,98670.06
2023-01-18T07:16:18.221Z,98685.69
2023-01-18T07:18:46.802Z,98687.38
2023-01-18T07:21:15.143Z,98690.84
2023-01-18T07:23:42.536Z,98688.09
2023-01-18T07:26:11.407Z,98693.22
2023-01-18T07:28:38.144Z,98701.09
2023-01-18T07:31:06.118Z,98697.53
2023-01-18T07:33:32.560Z,98695.56
2023-01-18T07:35:59.293Z,98706.94
2023-01-18T07:38:26.672Z,98705.00
2023-01-18T07:41:05.163Z,98699.72
2023-01-18T07:43:33.102Z,98709.16
2023-01-18T07:46:00.598Z,98702.94
2023-01-18T07:48:28.177Z,98710.84
2023-01-18T07:51:03.942Z,98724.66
2023-01-18T07:53:32.271Z,98720.28
2023-01-18T07:56:00.770Z,98727.19
2023-01-18T07:58:27.628Z,98717.50
2023-01-18T08:00:53.984Z,98737.59
2023-01-18T08:03:20.920Z,98739.25
2023-01-18T08:05:47.557Z,98740.06
2023-01-18T08:08:16.552Z,98735.63
2023-01-18T08:10:43.887Z,98752.13
2023-01-18T08:13:11.068Z,98748.56
2023-01-18T08:15:39.047Z,98759.91
2023-01-18T08:18:06.783Z,98756.28
2023-01-18T08:20:33.478Z,98764.06
2023-01-18T08:23:01.319Z,98767.53
2023-01-18T08:25:29.780Z,98772.69
2023-01-18T08:27:59.004Z,98775.88
2023-01-18T08:30:28.112Z,98771.44
2023-01-18T08:32:56.513Z,98777.41
2023-01-18T08:35:34.820Z,98778.09
2023-01-18T08:38:01.925Z,98777.97
2023-01-18T08:40:29.907Z,98783.81
2023-01-18T08:42:58.619Z,98788.81
2023-01-18T08:45:25.814Z,98795.72
2023-01-18T08:48:00.514Z,98804.22
2023-01-18T08:50:27.859Z,98800.47
2023-01-18T08:52:54.242Z,98806.31
2023-01-18T08:55:22.017Z,98807.69
2023-01-18T08:57:49.756Z,98805.78
2023-01-18T09:00:17.431Z,98817.72
2023-01-18T09:02:43.952Z,98811.34
2023-01-18T09:05:10.617Z,98812.75
2023-01-18T09:07:36.938Z,98819.44
2023-01-18T09:10:04.355Z,98819.97
2023-01-18T09:12:30.807Z,98821.41
2023-01-18T09:14:57.160Z,98825.56
2023-01-18T09:17:23.613Z,98837.47
2023-01-18T09:19:49.919Z,98833.63
2023-01-18T09:22:16.268Z,98835.00
2023-01-18T09:24:42.762Z,98840.88
2023-01-18T09:27:09.248Z,98835.19
2023-01-18T09:29:35.647Z,98839.22
2023-01-18T09:32:02.053Z,98844.22
2023-01-18T09:34:28.536Z,98853.53
2023-01-18T09:36:54.904Z,98860.19
2023-01-18T09:39:22.299Z,98862.53
2023-01-18T09:41:52.478Z,98864.78
2023-01-18T09:44:29.397Z,98869.78
2023-01-18T09:47:12.463Z,98875.63
2023-01-18T09:50:13.462Z,98877.00
2023-01-18T09:52:55.910Z,98880.22
2023-01-18T09:55:43.728Z,98880.78
2023-01-18T09:58:28.034Z,98879.56
2023-01-18T10:00:58.838Z,98888.16
2023-01-18T10:03:43.220Z,98879.28
2023-01-18T10:06:19.490Z,98887.63
2023-01-18T10:09:06.176Z,98891.91
2023-01-18T10:11:44.942Z,98885.41
2023-01-18T10:14:28.159Z,98889.56
2023-01-18T10:17:00.322Z,98885.97
2023-01-18T10:19:31.509Z,98890.94
2023-01-18T10:22:02.348Z,98884.72
2023-01-18T10:24:31.757Z,98890.56
2023-01-18T10:27:23.288Z,98896.53
2023-01-18T10:30:14.294Z,98893.63
2023-01-18T10:32:50.671Z,98891.69
2023-01-18T10:35:45.253Z,98894.03
2023-01-18T10:38:15.336Z,98891.94
2023-01-18T10:40:43.663Z,98900.69
2023-01-18T10:43:15.739Z,98903.06
2023-01-18T10:45:42.213Z,98908.91
2023-01-18T10:48:17.515Z,98905.16
2023-01-18T10:50:47.427Z,98912.66
2023-01-18T10:53:32.798Z,98909.59
2023-01-18T10:56:17.284Z,98902.25
2023-01-18T10:58:46.751Z,98907.38
2023-01-18T11:01:24.734Z,98907.06
2023-01-18T11:04:05.762Z,98911.00
2023-01-18T11:06:46.454Z,98916.81
2023-01-18T11:09:39.184Z,98910.97
2023-01-18T11:12:41.160Z,98915.72
2023-01-18T11:15:13.646Z,98915.13
2023-01-18T11:17:54.482Z,98919.00
2023-01-18T11:20:28.262Z,98912.34
2023-01-18T11:22:58.731Z,98910.09
2023-01-18T11:25:27.601Z,98913.31
2023-01-18T11:28:01.949Z,98903.13
2023-01-18T11:30:28.848Z,98912.31
2023-01-18T11:32:55.434Z,98903.09
2023-01-18T11:35:32.803Z,98907.97
2023-01-18T11:38:02.228Z,98907.38
2023-01-18T11:40:32.141Z,98907.78
2023-01-18T11:43:17.345Z,98910.69
2023-01-18T11:45:49.781Z,98902.19
2023-01-18T11:48:46.688Z,98900.94
2023-01-18T11:51:22.755Z,98899.34
2023-01-18T11:54:02.627Z,98902.38
2023-01-18T11:56:40.625Z,98916.81
2023-01-18T11:59:33.872Z,98908.47
2023-01-18T12:02:30.968Z,98903.44
2023-01-18T12:05:20.697Z,98910.78
2023-01-18T12:07:59.951Z,98905.75
2023-01-18T12:10:33.974Z,98904.13
2023-01-18T12:13:28.685Z,98904.53
2023-01-18T12:16:19.852Z,98909.09
2023-01-18T12:19:16.792Z,98912.13
2023-01-18T12:22:06.598Z,98907.06
2023-01-18T12:24:42.586Z,98906.47
2023-01-18T12:27:28.449Z,98912.97
2023-01-18T12:30:21.436Z,98907.22
2023-01-18T12:33:04.704Z,98906.63
2023-01-18T12:35:49.727Z,98906.00
2023-01-18T12:38:18.709Z,98901.06
2023-01-18T12:40:53.942Z,98907.59
2023-01-18T12:43:40.883Z,98899.19
2023-01-18T12:46:10.792Z,98898.59
2023-01-18T12:48:53.040Z,98901.63
2023-01-18T12:51:24.224Z,98899.34
2023-01-18T12:53:56.056Z,98904.31
2023-01-18T12:56:32.165Z,98897.56
2023-01-18T12:59:02.176Z,98905.06
2023-01-18T13:01:39.010Z,98905.44
2023-01-18T13:04:14.349Z,98900.47
2023-01-18T13:06:42.881Z,98899.03
2023-01-18T13:09:18.494Z,98902.06
2023-01-18T13:11:45.026Z,98897.78
2023-01-18T13:14:26.449Z,98904.28
2023-01-18T13:17:13.483Z,98906.63
2023-01-18T13:20:00.367Z,98897.34
2023-01-18T13:22:37.240Z,98907.50
2023-01-18T13:25:26.320Z,98909.69
2023-01-18T13:28:02.103Z,98911.84
2023-01-18T13:30:34.838Z,98906.25
2023-01-18T13:33:13.319Z,98913.72
2023-01-18T13:35:51.288Z,98915.91
2023-01-18T13:38:27.495Z,98905.78
2023-01-18T13:41:02.701Z,98907.28
2023-01-18T13:43:36.382Z,98912.13
2023-01-18T13:46:05.683Z,98914.44
2023-01-18T13:48:54.153Z,98912.47
2023-01-18T13:51:39.238Z,98909.50
2023-01-18T13:54:07.687Z,98916.31
2023-01-18T13:56:38.417Z,98917.00
2023-01-18T13:59:14.392Z,98923.81
2023-01-18T14:01:43.996Z,98932.44
2023-01-18T14:04:30.659Z,98926.97
2023-01-18T14:07:00.730Z,98933.75
2023-01-18T14:09:36.996Z,98944.22
2023-01-18T14:12:04.479Z,98942.41
2023-01-18T14:14:52.432Z,98942.09
2023-01-18T14:17:19.256Z,98940.25
2023-01-18T14:19:48.557Z,98939.28
2023-01-18T14:22:45.830Z,98946.25
2023-01-18T14:25:32.640Z,98955.88
2023-01-18T14:28:13.436Z,98946.09
2023-01-18T14:30:43.571Z,98948.75
2023-01-18T14:33:23.746Z,98946.91
2023-01-18T14:35:55.476Z,98957.53
2023-01-18T14:38:21.881Z,98956.03
2023-01-18T14:40:52.536Z,98956.03
2023-01-18T14:43:32.051Z,98960.50
2023-01-18T14:46:02.571Z,98965.81
2023-01-18T14:48:31.826Z,98964.31
2023-01-18T14:50:59.592Z,98966.16
2023-01-18T14:53:29.827Z,98965.28
2023-01-18T14:56:16.571Z,98965.47
2023-01-18T14:59:00.939Z,98962.13
2023-01-18T15:01:37.931Z,98966.75
2023-01-18T15:04:18.279Z,98968.78
2023-01-18T15:06:48.889Z,98966.41
2023-01-18T15:09:18.252Z,98964.06
2023-01-18T15:11:45.140Z,98965.22
2023-01-18T15:14:24.957Z,98974.19
2023-01-18T15:16:54.978Z,98976.31
2023-01-18T15:19:24.716Z,98971.31
2023-01-18T15:21:51.330Z,98968.16
2023-01-18T15:24:20.998Z,98971.13
2023-01-18T15:26:51.381Z,98973.09
2023-01-18T15:29:32.180Z,98973.41
2023-01-18T15:32:04.494Z,98978.03
2023-01-18T15:34:36.973Z,98983.66
2023-01-18T15:37:12.034Z,98986.63
2023-01-18T15:39:49.702Z,98984.31
2023-01-18T15:42:17.594Z,98989.06
2023-01-18T15:44:47.901Z,98980.59
2023-01-18T15:47:23.483Z,98991.53
2023-01-18T15:49:52.289Z,98983.03
2023-01-18T15:52:45.492Z,98992.28
2023-01-18T15:55:28.292Z,98991.75
2023-01-18T15:58:01.343Z,98992.25
2023-01-18T16:00:41.026Z,99001.47
2023-01-18T16:03:25.532Z,99002.59
2023-01-18T16:06:05.711Z,99009.22
2023-01-18T16:08:32.610Z,99013.97
2023-01-18T16:10:59.038Z,99016.25
2023-01-18T16:13:31.893Z,99022.69
2023-01-18T16:16:15.740Z,99017.69
2023-01-18T16:18:44.833Z,99025.13
2023-01-18T16:21:22.439Z,99020.13
2023-01-18T16:23:52.276Z,99019.59
2023-01-18T16:26:23.366Z,99022.69
2023-01-18T16:28:51.535Z,99014.22
2023-01-18T16:31:20.969Z,99017.16
2023-01-18T16:33:47.320Z,99015.78
2023-01-18T16:36:16.920Z,99029.34
2023-01-18T16:38:43.403Z,99033.28
2023-01-18T16:41:10.787Z,99030.78
2023-01-18T16:43:37.097Z,99030.25
2023-01-18T16:46:04.514Z,99028.72
2023-01-18T16:48:33.437Z,99035.97
2023-01-18T16:51:01.248Z,99043.09
2023-01-18T16:53:29.066Z,99048.69
2023-01-18T16:55:56.687Z,99048.97
2023-01-18T16:58:23.965Z,99046.50
2023-01-18T17:01:07.518Z,99048.44
2023-01-18T17:03:35.867Z,99052.09
2023-01-18T17:06:02.673Z,99050.56
2023-01-18T17:08:29.100Z,99056.00
2023-01-18T17:10:55.861Z,99052.53
2023-01-18T17:13:22.461Z,99061.59
2023-01-18T17:15:49.164Z,99058.94
2023-01-18T17:18:20.616Z,99063.41
2023-01-18T17:20:47.044Z,99060.75
2023-01-18T17:23:13.542Z,99068.00
2023-01-18T17:25:40.405Z,99069.81
2023-01-18T17:28:06.923Z,99071.66
2023-01-18T17:30:33.417Z,99057.72
2023-01-18T17:33:02.895Z,99074.44
2023-01-18T17:35:29.465Z,99063.84
2023-01-18T17:38:01.056Z,99069.13
2023-01-18T17:40:39.976Z,99065.66
2023-01-18T17:43:15.131Z,99082.22
2023-01-18T17:45:48.383Z,99083.06
2023-01-18T17:48:18.272Z,99077.59
2023-01-18T17:50:44.608Z,99087.22
2023-01-18T17:53:10.957Z,99093.22
2023-01-18T17:55:40.281Z,99092.09
2023-01-18T17:58:18.836Z,99095.56
2023-01-18T18:00:45.325Z,99098.91
2023-01-18T18:03:11.773Z,99103.22
2023-01-18T18:05:38.259Z,99103.22
2023-01-18T18:08:04.824Z,99114.50
2023-01-18T18:10:31.551Z,99114.50
2023-01-18T18:12:58.739Z,99113.50
2023-01-18T18:15:25.282Z,99116.16
2023-01-18T18:17:51.620Z,99121.44
2023-01-18T18:20:18.194Z,99119.78
2023-01-18T18:22:44.774Z,99128.56
2023-01-18T18:25:11.193Z,99125.09
2023-01-18T18:27:45.572Z,99141.94
2023-01-18T18:30:13.124Z,99138.47
2023-01-18T18:32:39.623Z,99140.28
2023-01-18T18:35:23.001Z,99140.41
2023-01-18T18:37:51.546Z,99146.56
2023-01-18T18:40:18.797Z,99151.16
2023-01-18T18:42:49.917Z,99143.34
2023-01-18T18:45:26.946Z,99150.47
2023-01-18T18:47:53.525Z,99140.88
2023-01-18T18:50:19.928Z,99143.66
2023-01-18T18:52:46.296Z,99144.63
2023-01-18T18:55:12.823Z,99158.00
2023-01-18T18:57:39.342Z,99163.31
2023-01-18T19:00:07.400Z,99155.50
2023-01-18T19:02:34.581Z,99164.28
2023-01-18T19:05:01.845Z,99168.88
2023-01-18T19:07:28.285Z,99165.41
2023-01-18T19:09:54.651Z,99165.41
2023-01-18T19:12:21.013Z,99168.06
2023-01-18T19:14:47.716Z,99171.66
2023-01-18T19:17:25.204Z,99169.84
2023-01-18T19:19:55.504Z,99170.72
2023-01-18T19:22:21.839Z,99176.84
2023-01-18T19:24:48.495Z,99180.19
2023-01-18T19:27:14.867Z,99180.84
2023-01-18T19:29:41.439Z,99180.59
2023-01-18T19:32:07.803Z,99190.72
2023-01-18T19:34:34.267Z,99185.13
2023-01-18T19:37:00.657Z,99188.34
2023-01-18T19:39:27.018Z,99179.97
2023-01-18T19:41:53.550Z,99177.84
2023-01-18T19:44:19.852Z,99185.19
2023-01-18T19:46:46.394Z,99181.31
2023-01-18T19:49:12.725Z,99187.97
2023-01-18T19:51:41.123Z,99190.34
2023-01-18T19:54:09.837Z,99187.53
2023-01-18T19:56:36.248Z,99190.72
2023-01-18T19:59:03.638Z,99183.44
2023-01-18T20:01:36.815Z,99190.28
2023-01-18T20:04:05.805Z,99193.47
2023-01-18T20:06:32.901Z,99191.50
2023-01-18T20:08:59.323Z,99191.34
2023-01-18T20:11:25.706Z,99186.88
2023-01-18T20:13:52.185Z,99185.94
2023-01-18T20:16:21.772Z,99189.25
2023-01-18T20:18:48.746Z,99183.81
2023-01-18T20:21:18.446Z,99183.66
2023-01-18T20:23:45.448Z,99186.97
2023-01-18T20:26:14.522Z,99191.16
2023-01-18T20:28:41.981Z,99188.19
2023-01-18T20:31:10.108Z,99187.06
2023-01-18T20:33:38.062Z,99187.75
2023-01-18T20:36:06.237Z,99194.75
2023-01-18T20:38:33.693Z,99196.41
2023-01-18T20:41:00.391Z,99191.09
2023-01-18T20:43:27.085Z,99192.09
2023-01-18T20:46:01.810Z,99200.88
2023-01-18T20:48:28.754Z,99199.06
2023-01-18T20:50:58.586Z,99205.19
2023-01-18T20:53:26.421Z,99212.31
2023-01-18T20:55:54.951Z,99214.97
2023-01-18T20:58:22.744Z,99210.34
2023-01-18T21:00:49.942Z,99219.81
2023-01-18T21:03:19.546Z,99218.84
2023-01-18T21:05:46.340Z,99218.69
2023-01-18T21:08:13.257Z,99218.41
2023-01-18T21:10:41.738Z,99217.25
2023-01-18T21:13:09.632Z,99212.47
2023-01-18T21:15:37.140Z,99212.34
2023-01-18T21:18:05.252Z,99212.88
2023-01-18T21:20:31.988Z,99205.63
2023-01-18T21:22:59.906Z,99216.91
2023-01-18T21:25:27.804Z,99203.47
2023-01-18T21:27:54.711Z,99206.97
2023-01-18T21:30:21.699Z,99213.94
2023-01-18T21:32:48.320Z,99213.78
2023-01-18T21:35:15.106Z,99222.44
2023-01-18T21:37:41.778Z,99218.81
2023-01-18T21:40:09.321Z,99214.34
2023-01-18T21:42:54.359Z,99220.34
2023-01-18T21:45:39.145Z,99227.28
2023-01-18T21:48:08.812Z,99228.00
2023-01-18T21:50:57.996Z,99230.34
2023-01-18T21:53:47.808Z,99229.50
2023-01-18T21:56:14.257Z,99233.69
2023-01-18T21:58:52.843Z,99232.69
2023-01-18T22:01:34.382Z,99229.72
2023-01-18T22:04:21.551Z,99231.41
2023-01-18T22:06:48.742Z,99224.97
2023-01-18T22:09:15.574Z,99221.47
2023-01-18T22:11:42.255Z,99227.63
2023-01-18T22:14:09.347Z,99241.72
2023-01-18T22:16:36.422Z,99237.38
2023-01-18T22:19:04.816Z,99239.38
2023-01-18T22:21:32.204Z,99228.88
2023-01-18T22:23:58.594Z,99232.53
2023-01-18T22:26:27.485Z,99235.34
2023-01-18T22:28:53.838Z,99228.69
2023-01-18T22:31:20.329Z,99223.50
2023-01-18T22:33:48.274Z,99229.94
2023-01-18T22:36:15.974Z,99231.91
2023-01-18T22:38:42.490Z,99235.56
2023-01-18T22:41:17.263Z,99233.03
2023-01-18T22:43:44.975Z,99249.13
2023-01-18T22:46:16.706Z,99246.47
2023-01-18T22:48:43.778Z,99246.47
2023-01-18T22:51:16.313Z,99245.59
2023-01-18T22:53:44.270Z,99248.44
2023-01-18T22:56:13.772Z,99247.59
2023-01-18T22:58:40.540Z,99257.34
2023-01-18T23:01:28.253Z,99253.03
2023-01-18T23:04:02.506Z,99254.03
2023-01-18T23:06:42.193Z,99263.78
2023-01-18T23:09:10.029Z,99263.94
2023-01-18T23:11:37.264Z,99255.81
2023-01-18T23:14:23.487Z,99257.50
2023-01-18T23:17:08.283Z,99254.69
2023-01-18T23:19:34.921Z,99256.38
2023-01-18T23:22:07.316Z,99254.69
2023-01-18T23:24:35.693Z,99255.38
2023-01-18T23:27:03.478Z,99248.44
2023-01-18T23:29:29.914Z,99253.56
2023-01-18T23:31:57.634Z,99242.13
2023-01-18T23:34:24.810Z,99243.94
2023-01-18T23:36:51.175Z,99241.44
2023-01-18T23:39:36.380Z,99238.13
2023-01-18T23:42:21.635Z,99240.09
2023-01-18T23:45:06.386Z,99237.56
2023-01-18T23:47:51.067Z,99235.91
2023-01-18T23:50:35.945Z,99239.69
2023-01-18T23:53:20.535Z,99247.66
2023-01-18T23:55:47.116Z,99257.44
2023-01-18T23:58:13.451Z,99269.84
